Aérodrome :
LOGIN :

S'inscrire | Disclaimer

   EN    FR    IT 

 










Légende :    VFR   VFR Marginal   IFR   IFR Intensif   IFR Très Intensif
Visi : 
Plafond : 
>= 8 km
>= 3000ft
5 à 8 km
1000 à 3000 ft
1500m à 5 km
500 à 1000 ft
800 à 1500m
200 à 500 ft
< 800m
< 200 ft
Symboles :   Orages  Brouillard  Fortes neiges  Fortes précipitations  Vent > 20 kt
SIGMETs :   Divers  Orages  Givrage  Turbulence  Onde Orograph.  Cendres Volcan.







- Altitude de l'aérodrome : 285 ft
- Code IATA : OZP


LEMO - Sevilla Moron

DERNIER METAR :
  • 250600Z 13002KT 9000 SCT018 SCT021 14/12 Q1012 NOSIG

METARs EXPIRÉS :
  • 250500Z 23004KT 9999 SCT011 BKN028 13/12 Q1013 NOSIG
  • 250400Z 00000KT 9999 SCT009 BKN035 14/12 Q1013 NOSIG
  • 250332Z 00000KT 9999 SCT009 BKN010 BKN035 14/12 Q1013 NOSIG

TAF TAF LEMO
Valide du 25 à 06h jusqu'au 25 à 15h UTC


250500Z 2506/2515 24007KT 9999 SCT020
Pas de NOTAMs connus pour ce terrain.



MET'MAP, la Météo Aéronautique d'un coup d'oeil ! - Copyright ORBIFLY Décembre 2007 - Disclaimer

ORBIFLY MET'MAP TEAM :

Programmation & Développement : Alexandra Zaïnal
Conception & Développement : Baudouin d'Aumeries
Co-Programmation & Développement : Marc-Olivier Méhu
Soutien technique & logistique : Manuel Goepfert

Contact : metmap@orbifly.com




SOURCES & CREDITS :

   NOAA